Time;durP1;ratioP1;P1;durP2;ratioP2;P2;SDS_P1;SDS_P2;PMS_P1;PMS_P2;Temp;Humidity;BMP_temperature;BMP_pressure;BME280_temperature;BME280_humidity;BME280_pressure;Samples;Min_cycle;Max_cycle;Signal;HPM_P1;HPM_P2
2021/07/04 00:01:57;;;;;;;2.80;2.30;;;20.70;76.20;;;;;;4915569;29;20324;-92
2021/07/04 00:04:23;;;;;;;3.25;2.67;;;20.70;76.20;;;;;;4918427;29;20024;-93
2021/07/04 00:06:48;;;;;;;2.30;2.10;;;20.70;76.20;;;;;;4917099;29;20479;-93
2021/07/04 00:09:16;;;;;;;2.70;2.47;;;20.60;76.10;;;;;;4918144;29;20123;-96
2021/07/04 00:11:44;;;;;;;4.13;3.40;;;20.60;76.00;;;;;;4923375;29;20040;-96
2021/07/04 00:21:09;;;;;;;2.53;2.33;;;20.50;76.50;;;;;;5316313;23;20052;-95
2021/07/04 00:23:36;;;;;;;3.50;2.85;;;20.50;76.40;;;;;;4923102;29;20060;-96
2021/07/04 00:26:03;;;;;;;4.25;3.60;;;20.40;76.60;;;;;;4924493;29;20016;-96
2021/07/04 00:28:28;;;;;;;3.83;3.15;;;20.30;76.90;;;;;;4917220;29;20028;-95
2021/07/04 00:30:55;;;;;;;3.50;2.67;;;20.30;77.10;;;;;;4918362;29;20028;-93
2021/07/04 00:33:20;;;;;;;2.53;2.33;;;20.30;77.00;;;;;;4917997;29;20039;-96
2021/07/04 00:36:04;;;;;;;;;;;;;;;;;;;;;
2021/07/04 00:38:30;;;;;;;3.03;2.10;;;20.30;76.90;;;;;;4921484;29;20130;-95
2021/07/04 00:40:55;;;;;;;3.83;2.78;;;20.40;76.80;;;;;;4918327;29;20096;-94
2021/07/04 00:43:21;;;;;;;2.38;2.17;;;20.30;77.20;;;;;;4917582;29;20028;-96
2021/07/04 00:45:47;;;;;;;2.58;2.17;;;20.20;77.20;;;;;;4918080;29;20103;-94
2021/07/04 00:48:14;;;;;;;3.67;3.00;;;20.20;77.50;;;;;;4916528;29;20119;-95
2021/07/04 00:50:40;;;;;;;3.38;2.88;;;20.10;77.70;;;;;;4917790;29;20075;-95
2021/07/04 00:53:07;;;;;;;2.45;2.25;;;20.10;78.20;;;;;;4918749;29;20032;-95
2021/07/04 00:55:33;;;;;;;2.22;2.03;;;19.90;78.30;;;;;;4917067;29;20043;-96
2021/07/04 00:57:59;;;;;;;3.35;2.70;;;19.90;78.50;;;;;;4918009;29;20130;-95
2021/07/04 01:00:28;;;;;;;3.97;2.70;;;20.00;78.60;;;;;;4916161;29;20163;-91
2021/07/04 01:02:54;;;;;;;2.65;2.10;;;19.90;78.90;;;;;;4915748;29;20110;-93
2021/07/04 01:05:23;;;;;;;3.50;2.90;;;19.90;79.00;;;;;;4917084;29;20024;-94
2021/07/04 01:07:51;;;;;;;2.40;2.20;;;19.80;79.30;;;;;;4916807;29;20107;-95
2021/07/04 01:10:19;;;;;;;3.13;2.83;;;19.80;79.30;;;;;;4916211;29;20028;-94
2021/07/04 01:12:47;;;;;;;3.05;2.50;;;19.80;79.30;;;;;;4913192;29;20036;-95
2021/07/04 01:15:17;;;;;;;2.33;2.13;;;19.80;79.50;;;;;;4917335;29;20031;-96
2021/07/04 01:17:43;;;;;;;2.72;1.90;;;19.80;79.30;;;;;;4916378;29;20547;-95
2021/07/04 01:20:11;;;;;;;2.55;2.10;;;19.80;79.10;;;;;;4917082;29;20032;-94
2021/07/04 01:22:41;;;;;;;2.10;1.90;;;19.90;78.80;;;;;;4916356;29;20484;-94
2021/07/04 01:25:10;;;;;;;2.72;1.98;;;20.00;78.70;;;;;;4915814;29;20016;-95
2021/07/04 01:27:36;;;;;;;1.73;1.63;;;20.00;78.60;;;;;;4917147;29;20185;-96
2021/07/04 01:30:06;;;;;;;2.13;1.80;;;20.00;78.40;;;;;;4909560;29;20109;-94
2021/07/04 01:32:31;;;;;;;2.10;1.90;;;20.10;78.30;;;;;;4916034;29;20517;-94
2021/07/04 01:34:57;;;;;;;2.10;1.83;;;20.10;78.20;;;;;;4916568;29;20028;-96
2021/07/04 01:37:23;;;;;;;2.05;1.70;;;20.20;78.10;;;;;;4916543;29;20051;-93
2021/07/04 01:39:48;;;;;;;1.70;1.60;;;20.20;78.00;;;;;;4915461;29;20021;-92
2021/07/04 01:42:14;;;;;;;3.28;1.90;;;20.20;77.90;;;;;;4913834;29;20028;-94
2021/07/04 01:44:39;;;;;;;2.40;1.80;;;20.20;77.90;;;;;;4914541;29;20020;-93
2021/07/04 01:47:05;;;;;;;1.85;1.70;;;20.20;77.80;;;;;;4914877;29;20032;-93
2021/07/04 01:49:30;;;;;;;1.98;1.55;;;20.20;77.90;;;;;;4918295;29;20028;-93
2021/07/04 01:51:56;;;;;;;2.00;1.70;;;20.20;77.80;;;;;;4918062;29;20024;-92
2021/07/04 01:54:22;;;;;;;1.90;1.80;;;20.20;77.70;;;;;;4917072;29;20387;-91
2021/07/04 01:56:47;;;;;;;2.47;1.70;;;20.20;77.60;;;;;;4917347;29;20028;-93
2021/07/04 01:59:13;;;;;;;2.20;2.00;;;20.30;77.60;;;;;;4917077;29;20020;-93
2021/07/04 02:01:39;;;;;;;1.77;1.67;;;20.30;77.60;;;;;;4916506;29;20020;-93
2021/07/04 02:04:04;;;;;;;2.10;1.90;;;20.20;77.50;;;;;;4916426;29;20046;-92
2021/07/04 02:06:33;;;;;;;2.15;1.95;;;20.20;77.50;;;;;;4915904;29;20020;-91
2021/07/04 02:08:59;;;;;;;1.80;1.70;;;20.30;77.70;;;;;;4915093;29;20051;-93
2021/07/04 02:11:25;;;;;;;2.30;2.10;;;20.30;77.70;;;;;;4915854;29;20106;-92
2021/07/04 02:13:51;;;;;;;2.08;1.88;;;20.20;77.70;;;;;;4915985;29;20039;-92
2021/07/04 02:16:17;;;;;;;2.60;1.80;;;20.30;77.70;;;;;;4915612;29;20621;-92
2021/07/04 02:18:43;;;;;;;2.13;1.65;;;20.30;77.70;;;;;;4915136;29;20091;-93
2021/07/04 02:21:09;;;;;;;1.98;1.77;;;20.30;77.60;;;;;;4914997;29;20093;-94
2021/07/04 02:23:35;;;;;;;2.10;1.90;;;20.30;77.40;;;;;;4915267;29;20103;-93
2021/07/04 02:26:01;;;;;;;3.85;2.95;;;20.30;77.50;;;;;;4915902;29;20020;-93
2021/07/04 02:28:29;;;;;;;3.28;2.70;;;20.20;77.70;;;;;;4916012;29;20454;-92
2021/07/04 02:30:56;;;;;;;2.33;2.10;;;20.10;78.00;;;;;;4915923;29;20028;-93
2021/07/04 02:33:23;;;;;;;3.08;2.42;;;20.20;78.10;;;;;;4913894;29;20036;-94
2021/07/04 02:35:55;;;;;;;2.28;2.08;;;20.10;78.20;;;;;;4915675;29;20040;-93
2021/07/04 02:38:21;;;;;;;2.35;1.92;;;20.10;78.30;;;;;;4907120;29;20122;-93
2021/07/04 02:40:48;;;;;;;2.40;2.20;;;20.10;78.20;;;;;;4915399;29;20288;-95
2021/07/04 02:43:16;;;;;;;2.17;1.98;;;20.10;78.30;;;;;;4914420;29;20020;-95
2021/07/04 02:45:43;;;;;;;3.63;2.38;;;20.10;78.30;;;;;;4916441;29;20024;-95
2021/07/04 02:48:10;;;;;;;2.80;1.80;;;20.10;78.30;;;;;;4916180;29;20040;-96
2021/07/04 02:50:37;;;;;;;2.90;2.17;;;20.10;78.20;;;;;;4914954;29;20048;-93
2021/07/04 02:53:03;;;;;;;3.25;2.40;;;20.10;78.10;;;;;;4914564;29;20046;-93
2021/07/04 02:55:29;;;;;;;2.55;2.35;;;20.10;78.30;;;;;;4914813;29;20111;-93
2021/07/04 02:57:55;;;;;;;2.20;2.03;;;20.00;78.40;;;;;;4915983;29;20055;-93
2021/07/04 03:00:25;;;;;;;2.15;1.95;;;20.00;78.50;;;;;;4916260;29;20483;-92
2021/07/04 03:02:51;;;;;;;1.77;1.67;;;20.00;78.40;;;;;;4915637;29;20033;-91
2021/07/04 03:05:17;;;;;;;2.40;2.20;;;20.10;78.30;;;;;;4917070;29;20099;-92
2021/07/04 03:07:44;;;;;;;1.80;1.70;;;20.10;78.20;;;;;;4916389;29;20048;-93
2021/07/04 03:10:13;;;;;;;2.17;1.92;;;20.10;78.20;;;;;;4916013;29;20032;-92
2021/07/04 03:12:39;;;;;;;3.25;2.30;;;20.20;78.20;;;;;;4915417;29;20028;-91
2021/07/04 03:15:06;;;;;;;2.50;2.30;;;20.20;78.10;;;;;;4916237;29;20040;-93
2021/07/04 03:17:32;;;;;;;1.98;1.80;;;20.10;78.20;;;;;;4915951;29;20516;-93
2021/07/04 03:19:58;;;;;;;2.92;2.15;;;20.10;78.20;;;;;;4919119;29;20039;-93
2021/07/04 03:22:24;;;;;;;2.35;1.95;;;20.10;78.20;;;;;;4919220;29;20051;-93
2021/07/04 03:24:49;;;;;;;2.78;2.45;;;20.10;78.10;;;;;;4919563;29;20027;-92
2021/07/04 03:27:15;;;;;;;2.55;2.35;;;20.20;78.20;;;;;;4918557;29;20031;-92
2021/07/04 03:29:41;;;;;;;2.20;2.00;;;20.10;78.40;;;;;;4919360;29;20027;-92
2021/07/04 03:32:07;;;;;;;2.85;1.98;;;20.00;78.30;;;;;;4917768;29;20064;-92
2021/07/04 03:34:34;;;;;;;1.92;1.75;;;20.10;78.40;;;;;;4919579;29;20024;-92
2021/07/04 03:36:59;;;;;;;2.10;1.90;;;20.10;78.30;;;;;;4919465;29;20048;-92
2021/07/04 03:39:25;;;;;;;2.35;2.10;;;20.20;78.20;;;;;;4919424;29;20020;-92
2021/07/04 03:41:51;;;;;;;3.35;2.03;;;20.20;78.00;;;;;;4917857;29;20115;-91
2021/07/04 03:44:16;;;;;;;3.58;2.50;;;20.20;78.00;;;;;;4918016;29;20492;-91
2021/07/04 03:46:42;;;;;;;1.83;1.73;;;20.20;78.00;;;;;;4917932;29;20661;-91
2021/07/04 03:49:08;;;;;;;2.20;2.00;;;20.20;78.10;;;;;;4919504;29;20032;-92
2021/07/04 03:51:33;;;;;;;2.22;2.03;;;20.20;78.00;;;;;;4917729;29;20395;-93
2021/07/04 03:53:59;;;;;;;3.83;2.95;;;20.20;78.10;;;;;;4919078;29;20111;-93
2021/07/04 03:56:25;;;;;;;3.40;2.50;;;20.10;78.20;;;;;;4919330;29;20149;-94
2021/07/04 03:58:51;;;;;;;4.03;2.75;;;20.10;78.40;;;;;;4917797;29;20091;-92
2021/07/04 04:01:20;;;;;;;3.00;2.65;;;20.00;78.60;;;;;;4917249;29;20368;-92
2021/07/04 04:03:49;;;;;;;3.38;2.53;;;20.00;78.70;;;;;;4918038;29;20028;-93
2021/07/04 04:06:16;;;;;;;3.42;2.35;;;19.90;79.10;;;;;;4918956;29;20028;-92
2021/07/04 04:08:43;;;;;;;3.03;2.55;;;19.90;79.20;;;;;;4918740;29;20048;-93
2021/07/04 04:11:09;;;;;;;2.60;2.25;;;19.90;79.40;;;;;;4918410;29;20029;-92
2021/07/04 04:13:36;;;;;;;2.72;2.30;;;19.90;79.30;;;;;;4918457;29;20107;-91
2021/07/04 04:16:01;;;;;;;2.40;2.03;;;20.00;79.10;;;;;;4917537;29;20048;-93
2021/07/04 04:18:27;;;;;;;2.45;2.25;;;20.00;79.10;;;;;;4918730;29;20487;-93
2021/07/04 04:20:55;;;;;;;3.00;2.45;;;20.00;79.10;;;;;;4918820;29;20535;-92
2021/07/04 04:23:20;;;;;;;2.83;2.55;;;20.00;79.00;;;;;;4917306;29;20111;-93
2021/07/04 04:25:46;;;;;;;3.08;2.75;;;20.00;79.10;;;;;;4918722;29;20055;-93
2021/07/04 04:28:11;;;;;;;2.45;2.25;;;20.00;79.20;;;;;;4918808;29;20434;-93
2021/07/04 04:30:37;;;;;;;2.78;2.30;;;20.00;79.20;;;;;;4917248;29;20107;-93
2021/07/04 04:33:03;;;;;;;2.33;2.13;;;20.10;79.20;;;;;;4917961;29;20056;-93
2021/07/04 04:35:29;;;;;;;2.20;2.00;;;20.10;79.10;;;;;;4918628;29;20028;-93
2021/07/04 04:37:56;;;;;;;4.45;3.17;;;20.20;79.00;;;;;;4918386;29;20510;-93
2021/07/04 04:40:22;;;;;;;3.60;2.78;;;20.20;79.00;;;;;;4918310;29;20413;-93
2021/07/04 04:42:47;;;;;;;2.65;2.42;;;20.20;79.10;;;;;;4916933;29;20095;-93
2021/07/04 04:45:13;;;;;;;2.97;2.47;;;20.20;79.10;;;;;;4916418;29;20020;-94
2021/07/04 04:47:39;;;;;;;3.03;2.63;;;20.20;79.00;;;;;;4917803;29;20119;-94
2021/07/04 04:50:07;;;;;;;2.78;2.58;;;20.20;78.90;;;;;;4916732;29;20172;-93
2021/07/04 04:52:32;;;;;;;2.92;2.53;;;20.30;79.00;;;;;;4917246;29;20039;-91
2021/07/04 04:54:58;;;;;;;3.63;3.03;;;20.20;79.50;;;;;;4916366;29;20028;-91
2021/07/04 04:57:24;;;;;;;4.03;3.50;;;20.30;79.00;;;;;;4917518;29;20024;-91
2021/07/04 04:59:49;;;;;;;3.13;2.72;;;20.20;79.10;;;;;;4917678;29;20035;-91
2021/07/04 05:02:15;;;;;;;4.90;3.72;;;20.20;79.10;;;;;;4916780;29;20028;-90
2021/07/04 05:04:40;;;;;;;3.72;3.30;;;20.20;79.20;;;;;;4917461;29;20060;-91
2021/07/04 05:07:07;;;;;;;4.40;3.97;;;20.20;79.30;;;;;;4916686;29;20024;-91
2021/07/04 05:09:33;;;;;;;4.10;3.70;;;20.20;79.40;;;;;;4917608;29;20025;-91
2021/07/04 05:11:59;;;;;;;4.47;3.90;;;20.20;79.60;;;;;;4916722;29;20091;-92
2021/07/04 05:14:25;;;;;;;5.45;4.88;;;20.20;79.60;;;;;;4910145;29;20027;-91
2021/07/04 05:16:51;;;;;;;5.10;3.60;;;20.10;79.80;;;;;;4908085;29;20028;-90
2021/07/04 05:19:16;;;;;;;5.38;4.20;;;20.10;80.00;;;;;;4901013;29;20424;-90
2021/07/04 05:21:42;;;;;;;4.32;3.70;;;20.20;79.90;;;;;;4915225;29;20028;-90
2021/07/04 05:24:10;;;;;;;3.28;2.97;;;20.30;79.70;;;;;;4916646;29;20048;-90
2021/07/04 05:26:35;;;;;;;3.72;3.35;;;20.40;79.40;;;;;;4912640;29;20131;-89
2021/07/04 05:29:01;;;;;;;3.95;3.55;;;20.50;79.10;;;;;;4915929;29;20116;-89
2021/07/04 05:31:28;;;;;;;3.58;3.13;;;20.70;78.70;;;;;;4910544;29;20041;-88
2021/07/04 05:33:53;;;;;;;3.30;2.97;;;20.80;78.30;;;;;;4908951;29;20542;-89
2021/07/04 05:36:19;;;;;;;4.20;3.40;;;21.10;77.80;;;;;;4914455;29;20051;-90
2021/07/04 05:38:48;;;;;;;4.45;3.50;;;21.10;77.60;;;;;;4914399;29;20131;-90
2021/07/04 05:41:15;;;;;;;3.97;3.35;;;21.20;77.30;;;;;;4913539;29;20116;-89
2021/07/04 05:43:42;;;;;;;3.42;3.13;;;21.40;76.70;;;;;;4903710;29;20032;-88
2021/07/04 05:46:09;;;;;;;6.10;5.50;;;21.40;76.60;;;;;;4916574;29;20042;-90
2021/07/04 05:48:36;;;;;;;8.20;6.28;;;21.30;76.60;;;;;;4915693;29;20036;-93
2021/07/04 05:51:02;;;;;;;5.88;5.25;;;21.20;77.00;;;;;;4915201;29;20072;-92
2021/07/04 05:53:28;;;;;;;8.95;5.82;;;21.00;77.30;;;;;;4911260;29;20151;-94
2021/07/04 05:55:54;;;;;;;6.13;5.32;;;21.00;77.50;;;;;;4904583;29;20043;-94
2021/07/04 05:58:30;;;;;;;5.53;4.93;;;20.90;77.80;;;;;;4911913;29;20031;-96
2021/07/04 06:01:17;;;;;;;8.10;6.38;;;20.80;78.00;;;;;;4909991;29;20119;-96
2021/07/04 06:03:42;;;;;;;6.07;5.30;;;20.90;78.00;;;;;;4916549;29;20024;-94
2021/07/04 06:06:08;;;;;;;7.32;6.10;;;21.10;77.70;;;;;;4916339;29;20038;-92
2021/07/04 06:08:33;;;;;;;12.35;9.48;;;21.30;77.20;;;;;;4917100;29;20028;-93
2021/07/04 06:10:59;;;;;;;10.25;7.38;;;21.10;77.10;;;;;;4917033;29;20043;-93
2021/07/04 06:13:24;;;;;;;7.28;5.93;;;21.00;77.50;;;;;;4916163;29;20039;-93
2021/07/04 06:15:50;;;;;;;6.45;5.18;;;21.00;77.80;;;;;;4916564;29;20049;-93
2021/07/04 06:18:15;;;;;;;7.85;6.38;;;21.00;77.70;;;;;;4916891;29;20024;-93
2021/07/04 06:20:41;;;;;;;6.20;5.07;;;21.00;77.70;;;;;;4909144;29;20021;-92
2021/07/04 06:23:07;;;;;;;6.38;5.30;;;21.00;77.80;;;;;;4914370;29;20055;-92
2021/07/04 06:25:32;;;;;;;7.28;5.43;;;21.10;77.80;;;;;;4913813;29;20028;-91
2021/07/04 06:27:58;;;;;;;6.85;5.50;;;21.10;77.70;;;;;;4915905;29;20559;-92
2021/07/04 06:30:23;;;;;;;6.40;4.60;;;21.10;77.60;;;;;;4915994;29;20043;-91
2021/07/04 06:32:49;;;;;;;8.10;5.95;;;21.20;77.90;;;;;;4913613;29;20119;-92
2021/07/04 06:35:16;;;;;;;6.82;5.45;;;21.20;77.60;;;;;;4915639;29;20119;-91
2021/07/04 06:37:42;;;;;;;7.57;6.45;;;21.20;77.60;;;;;;4917531;29;20020;-95
2021/07/04 06:40:21;;;;;;;8.25;6.28;;;21.20;77.30;;;;;;4918260;29;20123;-96
2021/07/04 06:43:00;;;;;;;8.40;6.50;;;21.30;77.10;;;;;;4900570;29;20058;-96
2021/07/04 06:46:05;;;;;;;7.95;6.53;;;21.40;77.00;;;;;;4918278;29;20020;-96
2021/07/04 06:48:58;;;;;;;9.90;6.90;;;21.40;76.70;;;;;;5327048;23;20068;-96
2021/07/04 06:51:43;;;;;;;9.00;7.28;;;21.50;76.50;;;;;;4923407;29;20036;-96
2021/07/04 07:00:16;;;;;;;11.07;8.40;;;21.40;76.70;;;;;;5298349;23;20067;-96
2021/07/04 07:02:52;;;;;;;;;;;;;;;;;;;;;
2021/07/04 07:05:19;;;;;;;12.93;8.88;;;21.40;76.90;;;;;;4940990;29;20122;-96
2021/07/04 07:07:46;;;;;;;9.20;7.05;;;21.30;77.00;;;;;;4938029;29;20047;-94
2021/07/04 07:10:13;;;;;;;12.98;9.82;;;21.20;77.10;;;;;;4939496;29;20023;-93
2021/07/04 07:12:39;;;;;;;12.40;8.85;;;21.20;77.20;;;;;;4936951;29;20046;-95
2021/07/04 07:15:05;;;;;;;9.23;7.88;;;21.30;77.20;;;;;;4936765;29;20051;-94
2021/07/04 07:17:31;;;;;;;10.95;8.77;;;21.40;77.00;;;;;;4920044;29;20032;-95
2021/07/04 07:19:57;;;;;;;12.02;9.50;;;21.50;76.60;;;;;;4944053;29;20056;-94
2021/07/04 07:22:22;;;;;;;11.27;8.57;;;21.50;76.40;;;;;;4937359;29;20031;-95
2021/07/04 07:24:48;;;;;;;11.27;9.20;;;21.60;76.30;;;;;;4937280;29;20383;-93
2021/07/04 07:27:15;;;;;;;10.50;8.55;;;21.50;76.30;;;;;;4919151;29;20024;-94
2021/07/04 07:29:41;;;;;;;14.80;11.65;;;21.40;76.40;;;;;;4935237;29;20026;-92
2021/07/04 07:32:14;;;;;;;11.02;9.07;;;21.40;76.50;;;;;;4938834;29;20471;-93
2021/07/04 07:34:39;;;;;;;12.70;9.52;;;21.30;76.70;;;;;;4926240;29;20016;-91
2021/07/04 07:37:05;;;;;;;11.35;8.00;;;21.30;76.80;;;;;;4939897;29;20027;-94
2021/07/04 07:39:31;;;;;;;13.85;10.40;;;21.30;76.80;;;;;;4938787;29;20503;-94
2021/07/04 07:41:57;;;;;;;9.80;6.95;;;21.30;76.80;;;;;;4928299;29;20029;-94
2021/07/04 07:44:22;;;;;;;11.20;8.88;;;21.30;76.70;;;;;;4920506;29;20024;-94
2021/07/04 07:46:49;;;;;;;13.80;10.57;;;21.40;76.70;;;;;;4921136;29;20028;-86
2021/07/04 07:49:16;;;;;;;13.25;9.98;;;21.50;76.60;;;;;;4941241;29;20023;-95
2021/07/04 07:51:43;;;;;;;12.05;9.43;;;21.50;76.50;;;;;;4937788;29;20019;-89
2021/07/04 07:54:09;;;;;;;15.30;10.95;;;21.70;76.30;;;;;;4935030;29;20112;-91
2021/07/04 07:56:35;;;;;;;13.52;9.68;;;21.80;76.00;;;;;;4935515;29;20020;-92
2021/07/04 07:59:01;;;;;;;11.20;9.18;;;21.90;75.80;;;;;;4936169;29;20034;-92
2021/07/04 08:01:27;;;;;;;9.68;7.63;;;22.10;75.60;;;;;;4937362;29;20086;-92
2021/07/04 08:03:52;;;;;;;12.32;9.15;;;22.30;75.30;;;;;;4936044;29;20059;-91
2021/07/04 08:06:19;;;;;;;11.02;8.60;;;22.40;74.90;;;;;;4937515;29;20051;-91
2021/07/04 08:08:44;;;;;;;12.25;9.50;;;22.40;74.50;;;;;;4933909;29;20028;-90
2021/07/04 08:11:10;;;;;;;11.00;8.85;;;22.50;74.40;;;;;;4934866;29;20075;-90
2021/07/04 08:13:36;;;;;;;11.02;9.07;;;22.50;74.40;;;;;;4936915;29;20032;-91
2021/07/04 08:16:01;;;;;;;12.52;10.02;;;22.50;74.30;;;;;;4936017;29;20491;-91
2021/07/04 08:18:27;;;;;;;11.52;9.55;;;22.50;74.30;;;;;;4934558;29;20051;-90
2021/07/04 08:20:53;;;;;;;13.02;10.52;;;22.60;74.20;;;;;;4934300;29;20023;-93
2021/07/04 08:23:20;;;;;;;11.98;9.48;;;22.60;73.90;;;;;;4932615;29;20431;-92
2021/07/04 08:25:46;;;;;;;12.75;9.93;;;22.60;73.80;;;;;;4933454;29;20118;-94
2021/07/04 08:28:12;;;;;;;12.95;10.65;;;22.60;73.70;;;;;;4932745;29;20131;-94
2021/07/04 08:30:37;;;;;;;12.40;9.95;;;22.60;73.60;;;;;;4937827;29;20031;-94
2021/07/04 08:33:03;;;;;;;11.52;9.52;;;22.60;73.60;;;;;;4935125;29;20040;-89
2021/07/04 08:35:29;;;;;;;12.15;9.45;;;22.60;73.50;;;;;;4932719;29;20024;-88
2021/07/04 08:37:54;;;;;;;12.82;9.85;;;22.70;73.50;;;;;;4932594;29;20039;-90
2021/07/04 08:40:20;;;;;;;12.85;10.20;;;22.70;73.30;;;;;;4931313;29;20040;-91
2021/07/04 08:42:49;;;;;;;14.50;10.77;;;22.70;73.30;;;;;;4929768;29;20094;-90
2021/07/04 08:45:14;;;;;;;15.52;11.00;;;22.80;73.20;;;;;;4936298;29;20023;-92
2021/07/04 08:47:40;;;;;;;11.13;9.02;;;22.80;73.00;;;;;;4936485;29;20039;-91
2021/07/04 08:50:07;;;;;;;13.38;9.93;;;22.80;72.80;;;;;;4936076;29;20030;-92
2021/07/04 08:52:36;;;;;;;13.32;10.25;;;22.80;72.80;;;;;;4936109;29;20491;-92
2021/07/04 08:55:03;;;;;;;13.73;10.25;;;22.90;72.80;;;;;;4935850;29;20016;-91
2021/07/04 08:57:30;;;;;;;15.55;11.68;;;22.90;72.70;;;;;;4916933;29;20035;-92
2021/07/04 08:59:56;;;;;;;12.25;9.25;;;22.90;72.50;;;;;;4918205;29;20131;-91
2021/07/04 09:02:31;;;;;;;13.38;9.45;;;22.90;72.60;;;;;;4917855;29;20488;-91
2021/07/04 09:05:09;;;;;;;13.23;10.25;;;23.00;72.50;;;;;;4918414;29;20024;-91
2021/07/04 09:07:36;;;;;;;12.55;10.25;;;23.00;72.40;;;;;;4928739;29;20027;-89
2021/07/04 09:10:06;;;;;;;11.50;9.15;;;23.00;72.40;;;;;;4938955;29;20047;-90
2021/07/04 09:12:40;;;;;;;12.02;9.20;;;23.10;72.10;;;;;;4937498;29;20036;-93
2021/07/04 09:15:17;;;;;;;10.15;8.43;;;23.30;71.70;;;;;;4935986;29;20055;-92
2021/07/04 09:17:49;;;;;;;8.80;6.95;;;23.50;71.20;;;;;;4951219;29;20570;-94
2021/07/04 09:20:37;;;;;;;12.55;9.32;;;23.60;70.70;;;;;;4936479;29;20059;-92
2021/07/04 09:23:04;;;;;;;11.68;9.20;;;23.70;70.60;;;;;;4936404;29;20557;-92
2021/07/04 09:25:32;;;;;;;11.60;8.75;;;23.80;70.10;;;;;;4936499;29;20055;-93
2021/07/04 09:28:12;;;;;;;11.80;9.80;;;23.90;69.60;;;;;;4936596;29;20106;-91
2021/07/04 09:30:53;;;;;;;11.55;9.75;;;23.80;68.80;;;;;;4935603;29;20027;-93
2021/07/04 09:33:32;;;;;;;9.55;8.15;;;23.90;68.50;;;;;;4936522;29;20123;-95
2021/07/04 09:36:05;;;;;;;7.20;6.30;;;23.90;67.70;;;;;;4935652;29;20071;-94
2021/07/04 09:38:32;;;;;;;8.55;6.57;;;24.20;67.10;;;;;;4936913;29;20106;-92
2021/07/04 09:40:58;;;;;;;7.10;6.07;;;24.50;66.70;;;;;;4935635;29;20079;-94
2021/07/04 09:43:27;;;;;;;7.07;5.78;;;24.80;65.90;;;;;;4938646;29;20020;-94
2021/07/04 09:46:12;;;;;;;7.55;6.13;;;25.10;64.80;;;;;;4936830;29;20062;-96
2021/07/04 09:48:46;;;;;;;10.57;9.27;;;25.30;63.50;;;;;;4937177;29;20052;-96
2021/07/04 09:51:20;;;;;;;11.82;9.63;;;25.30;62.70;;;;;;4936236;29;20027;-95
2021/07/04 09:53:51;;;;;;;13.25;10.70;;;25.30;60.90;;;;;;4935262;29;20028;-96
2021/07/04 09:56:27;;;;;;;10.98;9.52;;;25.20;59.90;;;;;;4935718;29;20024;-96
2021/07/04 09:58:59;;;;;;;11.95;8.75;;;25.10;59.50;;;;;;4935817;29;20038;-95
2021/07/04 10:01:31;;;;;;;;;;;25.10;60.50;;;;;;4937207;29;20034;-95
2021/07/04 10:03:57;;;;;;;11.40;9.63;;;25.50;61.10;;;;;;4932045;29;19986;-93
2021/07/04 10:06:22;;;;;;;10.38;8.13;;;25.60;59.70;;;;;;4915853;29;20024;-93
2021/07/04 10:08:49;;;;;;;8.00;5.97;;;25.70;59.30;;;;;;4917016;29;20702;-93
2021/07/04 10:11:16;;;;;;;7.60;6.63;;;25.90;59.50;;;;;;4917136;29;20075;-93
2021/07/04 10:13:46;;;;;;;7.63;6.60;;;26.20;59.30;;;;;;4916394;29;20031;-92
2021/07/04 10:16:17;;;;;;;5.93;5.28;;;26.30;58.80;;;;;;4916761;29;20088;-94
2021/07/04 10:18:45;;;;;;;7.30;6.40;;;26.60;59.10;;;;;;4917122;29;20027;-91
2021/07/04 10:21:12;;;;;;;7.22;6.10;;;26.80;58.80;;;;;;4916875;29;20099;-93
2021/07/04 10:23:45;;;;;;;7.68;6.40;;;26.90;58.80;;;;;;4915883;29;20043;-92
2021/07/04 10:26:11;;;;;;;6.47;5.50;;;27.10;58.70;;;;;;4915710;29;20085;-92
2021/07/04 10:28:39;;;;;;;5.00;4.43;;;27.30;58.20;;;;;;4916618;29;20028;-93
2021/07/04 10:31:14;;;;;;;9.55;7.72;;;27.40;57.80;;;;;;4916550;29;20124;-94
2021/07/04 10:33:40;;;;;;;7.95;6.97;;;27.30;56.80;;;;;;4916585;29;20036;-92
2021/07/04 10:36:16;;;;;;;7.13;6.32;;;27.10;57.00;;;;;;4915323;29;20024;-92
2021/07/04 10:38:43;;;;;;;8.43;6.50;;;27.00;57.60;;;;;;4916526;29;20039;-93
2021/07/04 10:41:14;;;;;;;7.80;6.50;;;26.90;57.80;;;;;;4915520;29;20035;-93
2021/07/04 10:43:58;;;;;;;5.72;4.90;;;26.90;58.00;;;;;;4914910;29;20024;-92
2021/07/04 10:46:49;;;;;;;9.88;8.07;;;27.00;58.10;;;;;;4935955;29;20040;-92
2021/07/04 10:49:31;;;;;;;8.93;7.82;;;27.10;57.50;;;;;;4935592;29;20038;-92
2021/07/04 10:52:06;;;;;;;6.53;5.82;;;27.20;56.90;;;;;;4933450;29;20042;-93
2021/07/04 10:54:40;;;;;;;7.20;6.18;;;27.30;57.10;;;;;;4932151;29;20027;-94
2021/07/04 10:57:11;;;;;;;7.72;6.45;;;27.40;56.60;;;;;;4932812;29;20024;-92
2021/07/04 10:59:58;;;;;;;6.90;5.83;;;27.30;56.30;;;;;;4935058;29;20043;-93
2021/07/04 11:02:41;;;;;;;6.25;4.65;;;27.10;56.30;;;;;;4933741;29;20384;-93
2021/07/04 11:05:15;;;;;;;5.45;4.82;;;27.20;56.40;;;;;;4933479;29;20016;-88
2021/07/04 11:07:52;;;;;;;4.93;4.22;;;27.20;56.60;;;;;;4932335;29;20075;-88
2021/07/04 11:10:23;;;;;;;5.90;4.55;;;27.30;56.50;;;;;;4933271;29;20028;-89
2021/07/04 11:12:51;;;;;;;5.18;4.47;;;27.40;56.10;;;;;;4931492;29;20040;-88
2021/07/04 11:15:20;;;;;;;5.85;5.03;;;27.40;56.00;;;;;;4933123;29;20079;-88
2021/07/04 11:17:58;;;;;;;5.72;4.97;;;27.40;55.90;;;;;;4931970;29;20024;-88
2021/07/04 11:20:25;;;;;;;5.63;4.97;;;27.30;55.70;;;;;;4930048;29;20056;-88
2021/07/04 11:22:58;;;;;;;7.22;5.68;;;27.20;55.70;;;;;;4930215;29;20419;-87
2021/07/04 11:25:25;;;;;;;6.22;4.90;;;27.20;55.80;;;;;;4931812;29;20028;-88
2021/07/04 11:28:15;;;;;;;6.15;4.20;;;27.10;55.60;;;;;;4931535;29;20048;-89
2021/07/04 11:30:42;;;;;;;5.15;4.30;;;27.10;55.70;;;;;;4928793;29;20037;-89
2021/07/04 11:33:29;;;;;;;5.90;4.38;;;27.20;55.70;;;;;;4931504;29;20130;-89
2021/07/04 11:36:08;;;;;;;4.25;3.85;;;27.30;55.70;;;;;;4931390;29;20546;-89
2021/07/04 11:38:40;;;;;;;5.80;4.88;;;27.40;55.60;;;;;;4923733;29;20398;-87
2021/07/04 11:41:07;;;;;;;;;;;27.30;55.00;;;;;;4948134;29;20119;-89
2021/07/04 11:43:37;;;;;;;5.38;4.35;;;27.30;55.40;;;;;;4951589;29;20487;-89
2021/07/04 11:46:04;;;;;;;5.43;4.40;;;27.30;55.30;;;;;;4936464;29;20035;-89
2021/07/04 11:48:49;;;;;;;6.07;4.20;;;27.40;55.00;;;;;;4934925;29;20038;-87
2021/07/04 11:51:25;;;;;;;4.57;3.70;;;27.50;55.10;;;;;;4930824;29;20107;-88
2021/07/04 11:53:56;;;;;;;5.13;4.30;;;27.60;55.10;;;;;;4916463;29;20039;-89
2021/07/04 11:56:21;;;;;;;5.93;4.85;;;27.60;54.70;;;;;;4928050;29;20031;-89
2021/07/04 11:58:47;;;;;;;6.35;4.55;;;27.60;54.40;;;;;;4917762;29;20612;-88
2021/07/04 12:01:21;;;;;;;6.88;5.50;;;27.50;54.50;;;;;;4935418;29;20058;-89
2021/07/04 12:03:49;;;;;;;4.72;4.22;;;27.30;54.40;;;;;;4933846;29;20031;-87
2021/07/04 12:06:15;;;;;;;6.63;5.57;;;27.40;54.60;;;;;;4933715;29;20059;-88
2021/07/04 12:08:50;;;;;;;5.22;4.00;;;27.40;54.10;;;;;;4935026;29;20475;-88
2021/07/04 12:11:16;;;;;;;4.97;4.07;;;27.30;54.10;;;;;;4936313;29;20063;-89
2021/07/04 12:13:43;;;;;;;5.22;3.88;;;27.60;54.20;;;;;;4928473;29;20016;-89
2021/07/04 12:16:09;;;;;;;5.32;4.57;;;27.70;53.70;;;;;;4921323;29;20020;-87
2021/07/04 12:18:37;;;;;;;4.70;3.90;;;27.70;53.30;;;;;;4935370;29;20050;-88
2021/07/04 12:21:05;;;;;;;6.03;4.13;;;27.80;53.30;;;;;;4920444;29;20027;-88
2021/07/04 12:23:30;;;;;;;6.07;4.22;;;27.80;52.90;;;;;;4931268;29;20463;-88
2021/07/04 12:25:56;;;;;;;3.70;3.40;;;27.80;53.00;;;;;;4935447;29;20023;-89
2021/07/04 12:28:23;;;;;;;4.38;3.58;;;28.00;53.00;;;;;;4931480;29;20027;-88
2021/07/04 12:30:50;;;;;;;3.70;3.30;;;28.10;52.80;;;;;;4933923;29;20098;-89
2021/07/04 12:33:19;;;;;;;4.30;3.55;;;28.10;52.00;;;;;;4916757;29;20543;-90
2021/07/04 12:36:07;;;;;;;3.17;2.78;;;28.00;52.10;;;;;;4936071;29;20015;-89
2021/07/04 12:38:41;;;;;;;4.10;3.20;;;28.20;51.80;;;;;;4935076;29;20031;-89
2021/07/04 12:41:13;;;;;;;4.00;3.30;;;28.00;51.50;;;;;;4930697;29;20054;-88
2021/07/04 12:43:44;;;;;;;3.47;3.13;;;28.20;51.60;;;;;;4936415;29;20079;-90
2021/07/04 12:46:27;;;;;;;3.57;3.23;;;28.20;51.70;;;;;;4935465;29;20118;-89
2021/07/04 12:48:58;;;;;;;3.20;2.90;;;28.10;51.60;;;;;;4936747;29;20283;-90
2021/07/04 12:51:30;;;;;;;4.43;3.33;;;28.20;51.70;;;;;;4933754;29;20431;-91
2021/07/04 12:54:30;;;;;;;4.75;3.70;;;28.30;51.60;;;;;;4935173;29;20519;-91
2021/07/04 12:56:56;;;;;;;3.67;2.80;;;28.30;51.30;;;;;;4935406;29;20035;-91
2021/07/04 12:59:26;;;;;;;2.92;2.53;;;28.20;51.50;;;;;;4936414;29;20139;-91
2021/07/04 13:01:54;;;;;;;3.88;3.08;;;28.20;51.40;;;;;;4935057;29;20028;-89
2021/07/04 13:04:20;;;;;;;2.80;2.53;;;28.10;51.10;;;;;;4935073;29;20063;-91
2021/07/04 13:06:56;;;;;;;3.92;3.50;;;28.10;51.30;;;;;;4935270;29;20047;-91
2021/07/04 13:09:34;;;;;;;6.38;4.30;;;28.10;51.50;;;;;;4951671;29;20055;-91